createdAt,value
2018-10-18T00:01:49.239Z,50.52
2018-10-18T00:04:24.295Z,48.33
2018-10-18T00:07:02.437Z,46.95
2018-10-18T00:09:31.784Z,48.05
2018-10-18T00:12:00.888Z,48.23
2018-10-18T00:14:29.692Z,49.38
2018-10-18T00:16:59.786Z,51.98
2018-10-18T00:19:28.524Z,50.17
2018-10-18T00:21:58.101Z,48.63
2018-10-18T00:24:26.855Z,49.37
2018-10-18T00:26:55.814Z,50.38
2018-10-18T00:29:24.544Z,47.77
2018-10-18T00:31:53.336Z,46.48
2018-10-18T00:34:23.313Z,46.53
2018-10-18T00:36:52.039Z,46.63
2018-10-18T00:39:20.776Z,45.15
2018-10-18T00:41:49.514Z,46.88
2018-10-18T00:44:19.363Z,46.65
2018-10-18T00:46:48.144Z,44.38
2018-10-18T00:49:16.930Z,44.90
2018-10-18T00:51:46.202Z,45.78
2018-10-18T00:54:15.036Z,46.05
2018-10-18T00:56:43.662Z,46.75
2018-10-18T00:59:12.344Z,46.00
2018-10-18T01:01:41.397Z,46.35
2018-10-18T01:04:12.508Z,46.53
2018-10-18T01:06:41.230Z,46.65
2018-10-18T01:09:12.511Z,48.78
2018-10-18T01:11:43.420Z,49.50
2018-10-18T01:14:12.175Z,49.47
2018-10-18T01:16:41.271Z,49.85
2018-10-18T01:19:10.389Z,49.27
2018-10-18T01:21:39.465Z,49.98
2018-10-18T01:24:09.086Z,50.23
2018-10-18T01:26:37.831Z,50.90
2018-10-18T01:29:06.922Z,48.83
2018-10-18T01:31:35.731Z,48.30
2018-10-18T01:34:04.885Z,46.55
2018-10-18T01:36:33.596Z,46.98
2018-10-18T01:39:02.701Z,47.27
2018-10-18T01:41:31.555Z,46.77
2018-10-18T01:44:00.259Z,46.73
2018-10-18T01:46:29.156Z,45.98
2018-10-18T01:48:58.924Z,45.12
2018-10-18T01:51:27.544Z,43.52
2018-10-18T01:53:56.356Z,45.17
2018-10-18T01:56:25.143Z,45.25
2018-10-18T01:58:53.952Z,46.15
2018-10-18T02:01:24.652Z,47.50
2018-10-18T02:03:53.519Z,48.28
2018-10-18T02:06:22.300Z,47.73
2018-10-18T02:08:50.843Z,46.75
2018-10-18T02:11:19.725Z,47.10
2018-10-18T02:13:49.209Z,46.53
2018-10-18T02:16:17.847Z,47.27
2018-10-18T02:18:47.077Z,48.70
2018-10-18T02:21:15.717Z,48.47
2018-10-18T02:23:44.805Z,48.48
2018-10-18T02:26:13.575Z,49.97
2018-10-18T02:28:42.461Z,50.07
2018-10-18T02:31:11.176Z,50.33
2018-10-18T02:33:39.926Z,50.08
2018-10-18T02:36:08.590Z,51.35
2018-10-18T02:38:38.439Z,50.80
2018-10-18T02:41:07.780Z,51.83
2018-10-18T02:43:36.540Z,50.67
2018-10-18T02:46:06.301Z,50.17
2018-10-18T02:48:34.934Z,50.65
2018-10-18T02:51:05.095Z,51.23
2018-10-18T02:53:34.245Z,50.17
2018-10-18T02:56:05.242Z,50.70
2018-10-18T02:58:33.979Z,51.55
2018-10-18T03:01:03.641Z,52.05
2018-10-18T03:03:32.333Z,52.88
2018-10-18T03:06:01.229Z,52.48
2018-10-18T03:08:30.033Z,51.00
2018-10-18T03:10:58.831Z,51.80
2018-10-18T03:13:27.738Z,49.93
2018-10-18T03:15:56.505Z,49.00
2018-10-18T03:18:25.249Z,49.15
2018-10-18T03:20:53.926Z,49.50
2018-10-18T03:23:22.696Z,49.10
2018-10-18T03:25:51.295Z,51.25
2018-10-18T03:28:20.010Z,52.13
2018-10-18T03:30:48.783Z,53.30
2018-10-18T03:33:18.269Z,54.48
2018-10-18T03:35:46.969Z,54.05
2018-10-18T03:38:15.746Z,53.28
2018-10-18T03:40:44.434Z,52.80
2018-10-18T03:43:13.064Z,52.13
2018-10-18T03:45:43.241Z,51.60
2018-10-18T03:48:11.979Z,53.92
2018-10-18T03:50:40.671Z,54.63
2018-10-18T03:53:09.389Z,52.15
2018-10-18T03:55:38.267Z,53.75
2018-10-18T03:58:07.274Z,54.18
2018-10-18T04:00:36.800Z,52.93
2018-10-18T04:03:05.804Z,53.08
2018-10-18T04:05:34.555Z,52.55
2018-10-18T04:08:03.724Z,51.80
2018-10-18T04:10:33.575Z,54.25
2018-10-18T04:13:03.352Z,53.33
2018-10-18T04:15:32.906Z,54.60
2018-10-18T04:18:02.829Z,54.42
2018-10-18T04:20:32.206Z,52.98
2018-10-18T04:23:01.539Z,53.23
2018-10-18T04:25:32.504Z,50.08
2018-10-18T04:28:03.202Z,52.47
2018-10-18T04:30:32.021Z,50.30
2018-10-18T04:33:01.038Z,50.73
2018-10-18T04:35:29.827Z,52.15
2018-10-18T04:37:58.845Z,51.13
2018-10-18T04:40:29.821Z,52.43
2018-10-18T04:42:58.690Z,54.05
2018-10-18T04:45:27.308Z,55.10
2018-10-18T04:47:56.176Z,55.98
2018-10-18T04:50:24.966Z,55.23
2018-10-18T04:52:53.669Z,55.23
2018-10-18T04:55:22.443Z,54.73
2018-10-18T04:57:51.301Z,56.37
2018-10-18T05:00:19.976Z,55.45
2018-10-18T05:02:49.458Z,54.25
2018-10-18T05:05:29.185Z,54.05
2018-10-18T05:07:57.979Z,54.30
2018-10-18T05:10:30.251Z,55.65
2018-10-18T05:12:59.046Z,52.88
2018-10-18T05:15:27.681Z,54.05
2018-10-18T05:17:56.666Z,56.92
2018-10-18T05:20:25.890Z,56.73
2018-10-18T05:22:56.088Z,56.65
2018-10-18T05:25:25.405Z,56.68
2018-10-18T05:27:54.227Z,55.28
2018-10-18T05:30:22.993Z,55.00
2018-10-18T05:32:54.746Z,55.55
2018-10-18T05:35:25.889Z,55.85
2018-10-18T05:37:55.051Z,56.93
2018-10-18T05:40:24.099Z,55.48
2018-10-18T05:42:54.861Z,56.13
2018-10-18T05:45:23.583Z,56.05
2018-10-18T05:47:54.458Z,52.88
2018-10-18T05:50:23.099Z,55.65
2018-10-18T05:52:51.844Z,55.30
2018-10-18T05:55:20.672Z,56.15
2018-10-18T05:57:49.470Z,54.08
2018-10-18T06:00:19.051Z,58.33
2018-10-18T06:02:48.118Z,56.47
2018-10-18T06:05:17.696Z,55.90
2018-10-18T06:07:46.658Z,55.65
2018-10-18T06:10:27.879Z,56.18
2018-10-18T06:12:56.773Z,57.43
2018-10-18T06:15:25.483Z,59.53
2018-10-18T06:17:54.373Z,57.53
2018-10-18T06:20:23.191Z,56.02
2018-10-18T06:22:52.269Z,55.33
2018-10-18T06:25:21.463Z,55.13
2018-10-18T06:27:50.327Z,54.05
2018-10-18T06:30:22.277Z,55.92
2018-10-18T06:32:51.190Z,55.95
2018-10-18T06:35:25.677Z,56.55
2018-10-18T06:38:09.142Z,55.43
2018-10-18T06:40:39.815Z,55.12
2018-10-18T06:43:10.256Z,55.67
2018-10-18T06:45:39.264Z,55.20
2018-10-18T06:48:08.891Z,55.88
2018-10-18T06:50:37.594Z,55.12
2018-10-18T06:53:06.525Z,55.43
2018-10-18T06:55:36.914Z,56.58
2018-10-18T06:58:07.703Z,55.10
2018-10-18T07:00:36.675Z,53.50
2018-10-18T07:03:05.668Z,54.55
2018-10-18T07:05:35.221Z,55.88
2018-10-18T07:08:11.800Z,55.83
2018-10-18T07:10:41.087Z,55.40
2018-10-18T07:13:11.661Z,54.15
2018-10-18T07:15:40.503Z,56.75
2018-10-18T07:18:13.269Z,52.60
2018-10-18T07:20:42.860Z,53.65
2018-10-18T07:23:12.068Z,53.73
2018-10-18T07:25:41.033Z,55.92
2018-10-18T07:28:09.960Z,54.25
2018-10-18T07:30:39.810Z,54.63
2018-10-18T07:33:08.828Z,54.55
2018-10-18T07:35:37.794Z,54.80
2018-10-18T07:38:10.206Z,56.77
2018-10-18T07:40:39.391Z,54.60
2018-10-18T07:43:08.488Z,53.98
2018-10-18T07:45:37.334Z,55.07
2018-10-18T07:48:08.383Z,55.43
2018-10-18T07:50:37.390Z,57.78
2018-10-18T07:53:11.343Z,57.20
2018-10-18T07:55:40.321Z,59.50
2018-10-18T07:58:09.852Z,60.58
2018-10-18T08:00:39.715Z,57.48
2018-10-18T08:03:08.627Z,59.63
2018-10-18T08:05:37.629Z,58.40
2018-10-18T08:08:06.940Z,58.00
2018-10-18T08:10:35.654Z,56.40
2018-10-18T08:13:05.074Z,63.58
2018-10-18T08:15:33.969Z,59.60
2018-10-18T08:18:03.013Z,64.82
2018-10-18T08:20:32.231Z,68.33
2018-10-18T08:23:02.058Z,63.45
2018-10-18T08:25:39.801Z,62.67
2018-10-18T08:28:15.241Z,67.15
2018-10-18T08:30:45.632Z,64.82
2018-10-18T08:33:14.916Z,62.30
2018-10-18T08:35:43.639Z,64.67
2018-10-18T08:38:12.497Z,71.82
2018-10-18T08:40:47.922Z,73.87
2018-10-18T08:43:23.893Z,71.55
2018-10-18T08:45:53.123Z,70.45
2018-10-18T08:48:22.071Z,71.50
2018-10-18T08:50:50.946Z,73.00
2018-10-18T08:53:19.746Z,76.60
2018-10-18T08:55:48.514Z,78.42
2018-10-18T09:05:19.842Z,85.70
2018-10-18T09:10:54.045Z,80.72
2018-10-18T09:13:42.966Z,77.12
2018-10-18T09:16:23.178Z,76.72
2018-10-18T09:18:59.373Z,70.92
2018-10-18T09:21:36.076Z,71.77
2018-10-18T09:24:14.331Z,74.72
2018-10-18T09:26:43.623Z,70.85
2018-10-18T09:29:12.745Z,73.85
2018-10-18T09:31:41.859Z,62.35
2018-10-18T09:34:13.186Z,59.20
2018-10-18T09:36:42.314Z,56.18
2018-10-18T09:39:11.116Z,53.38
2018-10-18T09:41:41.119Z,53.98
2018-10-18T09:44:09.999Z,53.25
2018-10-18T09:46:38.887Z,52.35
2018-10-18T09:49:07.805Z,52.60
2018-10-18T09:51:36.537Z,51.80
2018-10-18T09:54:05.744Z,53.60
2018-10-18T09:56:34.651Z,52.75
2018-10-18T09:59:03.591Z,51.47
2018-10-18T10:01:40.086Z,52.35
2018-10-18T10:04:11.668Z,51.80
2018-10-18T10:06:40.476Z,51.83
2018-10-18T10:09:09.632Z,51.98
2018-10-18T10:11:39.031Z,51.63
2018-10-18T10:14:11.479Z,65.62
2018-10-18T10:16:45.621Z,57.95
2018-10-18T10:19:14.812Z,62.17
2018-10-18T10:21:45.517Z,52.58
2018-10-18T10:24:15.053Z,54.58
2018-10-18T10:26:43.844Z,52.90
2018-10-18T10:29:12.576Z,52.95
2018-10-18T10:31:41.512Z,51.40
2018-10-18T10:34:11.168Z,51.73
2018-10-18T10:36:40.046Z,49.60
2018-10-18T10:39:09.629Z,50.00
2018-10-18T10:41:38.795Z,49.45
2018-10-18T10:44:15.021Z,50.50
2018-10-18T10:46:48.681Z,53.20
2018-10-18T10:49:17.821Z,51.45
2018-10-18T10:51:46.418Z,51.20
2018-10-18T10:54:15.181Z,52.35
2018-10-18T10:56:44.289Z,50.52
2018-10-18T10:59:19.790Z,54.50
2018-10-18T11:01:53.664Z,51.88
2018-10-18T11:04:22.889Z,50.50
2018-10-18T11:06:51.763Z,53.70
2018-10-18T11:09:20.596Z,58.60
2018-10-18T11:11:49.349Z,51.77
2018-10-18T11:14:18.114Z,54.83
2018-10-18T11:16:46.834Z,51.85
2018-10-18T11:19:15.770Z,53.20
2018-10-18T11:21:44.624Z,53.17
2018-10-18T11:24:13.543Z,51.63
2018-10-18T11:26:42.677Z,50.40
2018-10-18T11:29:11.450Z,51.35
2018-10-18T11:31:40.211Z,51.37
2018-10-18T11:34:09.902Z,52.25
2018-10-18T11:36:38.802Z,52.47
2018-10-18T11:39:08.536Z,50.50
2018-10-18T11:41:37.383Z,51.35
2018-10-18T11:44:06.734Z,51.37
2018-10-18T11:46:35.663Z,45.93
2018-10-18T11:49:04.497Z,46.02
2018-10-18T11:51:34.042Z,46.63
2018-10-18T11:54:03.151Z,44.55
2018-10-18T11:56:32.032Z,43.95
2018-10-18T11:59:00.895Z,43.50
2018-10-18T12:01:30.346Z,42.85
2018-10-18T12:03:59.187Z,41.20
2018-10-18T12:06:27.908Z,41.15
2018-10-18T12:09:00.531Z,40.83
2018-10-18T12:11:37.311Z,39.25
2018-10-18T12:14:07.480Z,37.08
2018-10-18T12:16:37.218Z,37.13
2018-10-18T12:19:06.664Z,36.60
2018-10-18T12:21:35.572Z,36.58
2018-10-18T12:24:07.102Z,36.87
2018-10-18T12:26:35.898Z,36.93
2018-10-18T12:29:04.860Z,37.65
2018-10-18T12:31:34.269Z,37.03
2018-10-18T12:34:03.985Z,37.78
2018-10-18T12:36:33.489Z,37.80
2018-10-18T12:39:02.692Z,36.50
2018-10-18T12:41:31.572Z,38.27
2018-10-18T12:44:00.694Z,36.23
2018-10-18T12:46:29.469Z,38.00
2018-10-18T12:48:58.445Z,36.23
2018-10-18T12:51:27.297Z,35.30
2018-10-18T12:53:56.312Z,34.03
2018-10-18T12:56:25.536Z,34.73
2018-10-18T12:58:54.487Z,35.55
2018-10-18T13:01:23.377Z,36.10
2018-10-18T13:03:52.223Z,38.02
2018-10-18T13:06:21.314Z,37.37
2018-10-18T13:08:50.260Z,37.25
2018-10-18T13:11:19.356Z,38.80
2018-10-18T13:13:48.316Z,36.60
2018-10-18T13:16:17.508Z,37.13
2018-10-18T13:18:46.585Z,34.88
2018-10-18T13:21:15.466Z,35.60
2018-10-18T13:23:44.503Z,34.30
2018-10-18T13:26:13.320Z,34.20
2018-10-18T13:28:42.371Z,35.48
2018-10-18T13:31:11.572Z,33.50
2018-10-18T13:33:40.325Z,34.92
2018-10-18T13:36:09.140Z,34.92
2018-10-18T13:38:47.309Z,34.70
2018-10-18T13:41:21.174Z,33.80
2018-10-18T13:43:50.418Z,34.03
2018-10-18T13:46:19.348Z,33.95
2018-10-18T13:48:48.091Z,34.92
2018-10-18T13:51:16.853Z,34.78
2018-10-18T13:53:45.768Z,34.40
2018-10-18T13:56:14.771Z,36.58
2018-10-18T13:58:44.086Z,34.53
2018-10-18T14:01:12.961Z,34.75
2018-10-18T14:03:41.871Z,33.15
2018-10-18T14:06:10.792Z,32.60
2018-10-18T14:08:40.264Z,34.50
2018-10-18T14:11:09.290Z,33.70
2018-10-18T14:13:38.088Z,34.78
2018-10-18T14:16:07.109Z,35.92
2018-10-18T14:18:36.070Z,37.00
2018-10-18T14:21:05.382Z,36.03
2018-10-18T14:26:14.775Z,37.17
2018-10-18T14:28:43.667Z,35.83
2018-10-18T14:31:12.480Z,36.90
2018-10-18T14:33:41.517Z,36.00
2018-10-18T14:36:10.550Z,35.73
2018-10-18T14:38:39.391Z,37.38
2018-10-18T14:41:13.312Z,36.77
2018-10-18T14:43:50.808Z,38.07
2018-10-18T14:46:20.062Z,36.77
2018-10-18T14:48:48.875Z,37.78
2018-10-18T14:51:17.622Z,37.25
2018-10-18T14:53:46.591Z,36.42
2018-10-18T14:56:15.575Z,41.15
2018-10-18T14:58:44.599Z,35.88
2018-10-18T15:01:13.521Z,38.33
2018-10-18T15:03:42.250Z,38.20
2018-10-18T15:06:11.195Z,38.28
2018-10-18T15:08:40.080Z,36.75
2018-10-18T15:11:09.355Z,36.98
2018-10-18T15:13:38.606Z,37.10
2018-10-18T15:16:07.343Z,37.15
2018-10-18T15:18:36.240Z,36.83
2018-10-18T15:21:05.215Z,36.93
2018-10-18T15:23:34.116Z,37.33
2018-10-18T15:26:03.060Z,38.63
2018-10-18T15:28:33.686Z,38.02
2018-10-18T15:31:03.183Z,37.53
2018-10-18T15:33:31.952Z,39.65
2018-10-18T15:36:00.849Z,38.17
2018-10-18T15:38:29.765Z,38.10
2018-10-18T15:40:58.775Z,37.17
2018-10-18T15:43:27.904Z,37.10
2018-10-18T15:45:57.216Z,37.83
2018-10-18T15:48:26.286Z,37.23
2018-10-18T15:50:55.218Z,38.83
2018-10-18T15:53:25.244Z,35.95
2018-10-18T15:55:54.203Z,37.35
2018-10-18T15:58:23.165Z,37.13
2018-10-18T16:00:52.396Z,35.48
2018-10-18T16:03:21.429Z,36.10
2018-10-18T16:05:50.458Z,37.93
2018-10-18T16:08:19.385Z,37.28
2018-10-18T16:10:50.757Z,38.70
2018-10-18T16:13:19.491Z,37.98
2018-10-18T16:15:48.376Z,37.60
2018-10-18T16:18:17.315Z,36.75
2018-10-18T16:20:46.754Z,39.53
2018-10-18T16:23:16.344Z,36.03
2018-10-18T16:25:45.220Z,37.60
2018-10-18T16:28:14.127Z,36.90
2018-10-18T16:30:42.869Z,38.15
2018-10-18T16:33:11.812Z,38.45
2018-10-18T16:35:40.748Z,37.85
2018-10-18T16:38:13.382Z,40.58
2018-10-18T16:40:42.388Z,40.67
2018-10-18T16:43:11.423Z,41.13
2018-10-18T16:45:40.302Z,40.43
2018-10-18T16:48:09.689Z,40.80
2018-10-18T16:50:38.601Z,41.23
2018-10-18T16:53:08.034Z,42.23
2018-10-18T16:55:36.876Z,42.25
2018-10-18T16:58:05.702Z,42.08
2018-10-18T17:00:34.499Z,43.00
2018-10-18T17:03:03.308Z,42.30
2018-10-18T17:05:32.063Z,43.65
2018-10-18T17:08:00.735Z,45.25
2018-10-18T17:10:29.176Z,44.33
2018-10-18T17:12:58.426Z,43.68
2018-10-18T17:15:27.362Z,44.08
2018-10-18T17:17:56.487Z,43.95
2018-10-18T17:20:25.573Z,45.70
2018-10-18T17:22:54.723Z,44.55
2018-10-18T17:25:24.339Z,45.30
2018-10-18T17:28:01.041Z,44.85
2018-10-18T17:30:30.096Z,46.10
2018-10-18T17:32:58.983Z,46.15
2018-10-18T17:35:28.229Z,48.92
2018-10-18T17:37:57.497Z,48.40
2018-10-18T17:40:26.617Z,50.17
2018-10-18T17:42:55.561Z,51.45
2018-10-18T17:45:26.351Z,50.23
2018-10-18T17:47:55.472Z,51.25
2018-10-18T17:50:24.587Z,49.93
2018-10-18T17:52:53.447Z,52.27
2018-10-18T17:55:22.736Z,49.90
2018-10-18T17:57:53.024Z,51.93
2018-10-18T18:00:21.817Z,50.88
2018-10-18T18:02:50.644Z,52.07
2018-10-18T18:05:19.397Z,50.88
2018-10-18T18:07:48.180Z,51.08
2018-10-18T18:10:17.702Z,51.05
2018-10-18T18:12:46.580Z,51.70
2018-10-18T18:15:15.309Z,51.58
2018-10-18T18:17:44.154Z,50.52
2018-10-18T18:20:15.377Z,51.13
2018-10-18T18:22:44.283Z,50.45
2018-10-18T18:25:13.474Z,48.35
2018-10-18T18:27:42.297Z,48.55
2018-10-18T18:30:13.188Z,48.92
2018-10-18T18:32:42.440Z,47.88
2018-10-18T18:35:11.322Z,53.95
2018-10-18T18:37:42.243Z,47.67
2018-10-18T18:40:11.233Z,47.90
2018-10-18T18:42:41.882Z,49.65
2018-10-18T18:45:15.989Z,49.77
2018-10-18T18:47:44.825Z,51.92
2018-10-18T18:50:13.503Z,51.50
2018-10-18T18:52:43.103Z,50.95
2018-10-18T18:55:12.716Z,45.88
2018-10-18T18:57:41.630Z,44.20
2018-10-18T19:00:11.154Z,44.88
2018-10-18T19:02:40.094Z,48.00
2018-10-18T19:05:09.391Z,47.40
2018-10-18T19:07:38.413Z,48.10
2018-10-18T19:10:07.840Z,48.68
2018-10-18T19:12:36.505Z,48.08
2018-10-18T19:15:05.872Z,49.30
2018-10-18T19:17:34.705Z,48.60
2018-10-18T19:20:04.309Z,46.00
2018-10-18T19:22:33.101Z,47.48
2018-10-18T19:25:02.132Z,47.27
2018-10-18T19:27:30.953Z,46.53
2018-10-18T19:29:59.903Z,46.15
2018-10-18T19:32:28.798Z,43.38
2018-10-18T19:34:58.023Z,44.23
2018-10-18T19:37:26.875Z,43.45
2018-10-18T19:39:55.668Z,44.33
2018-10-18T19:42:24.903Z,45.52
2018-10-18T19:44:53.922Z,44.67
2018-10-18T19:47:23.311Z,46.07
2018-10-18T19:49:52.295Z,47.43
2018-10-18T19:52:21.225Z,48.30
2018-10-18T19:54:50.034Z,45.57
2018-10-18T19:57:18.882Z,45.25
2018-10-18T19:59:49.006Z,47.10
2018-10-18T20:02:17.748Z,45.50
2018-10-18T20:04:46.607Z,47.40
2018-10-18T20:07:15.670Z,45.80
2018-10-18T20:09:44.590Z,44.53
2018-10-18T20:12:13.629Z,45.73
2018-10-18T20:14:42.399Z,46.57
2018-10-18T20:17:11.307Z,45.70
2018-10-18T20:19:40.049Z,46.98
2018-10-18T20:22:11.727Z,47.10
2018-10-18T20:24:41.249Z,48.30
2018-10-18T20:27:10.771Z,47.70
2018-10-18T20:29:43.240Z,47.62
2018-10-18T20:32:12.116Z,47.23
2018-10-18T20:34:40.863Z,48.90
2018-10-18T20:37:09.685Z,47.08
2018-10-18T20:39:38.558Z,48.00
2018-10-18T20:42:09.433Z,48.42
2018-10-18T20:44:38.200Z,49.13
2018-10-18T20:47:06.915Z,49.20
2018-10-18T20:49:35.792Z,48.60
2018-10-18T20:52:04.790Z,49.25
2018-10-18T20:54:34.073Z,49.03
2018-10-18T20:57:02.946Z,49.18
2018-10-18T20:59:31.618Z,49.63
2018-10-18T21:02:00.365Z,49.15
2018-10-18T21:04:29.192Z,47.62
2018-10-18T21:06:57.926Z,49.23
2018-10-18T21:09:26.659Z,51.50
2018-10-18T21:11:55.468Z,50.73
2018-10-18T21:14:24.235Z,51.53
2018-10-18T21:16:53.126Z,50.83
2018-10-18T21:19:21.835Z,51.40
2018-10-18T21:21:50.699Z,50.60
2018-10-18T21:24:19.486Z,48.90
2018-10-18T21:26:48.362Z,48.07
2018-10-18T21:29:18.617Z,49.60
2018-10-18T21:31:47.265Z,48.87
2018-10-18T21:34:16.149Z,50.47
2018-10-18T21:36:44.921Z,51.53
2018-10-18T21:39:18.148Z,52.00
2018-10-18T21:41:46.828Z,53.13
2018-10-18T21:44:15.648Z,52.23
2018-10-18T21:46:44.493Z,50.83
2018-10-18T21:49:13.232Z,51.05
2018-10-18T21:51:43.335Z,50.43
2018-10-18T21:54:12.070Z,50.43
2018-10-18T21:56:41.508Z,49.90
2018-10-18T21:59:10.449Z,50.85
2018-10-18T22:01:40.317Z,50.30
2018-10-18T22:04:09.196Z,50.60
2018-10-18T22:06:41.143Z,49.48
2018-10-18T22:09:10.102Z,51.73
2018-10-18T22:11:38.773Z,51.00
2018-10-18T22:14:08.740Z,52.05
2018-10-18T22:16:38.163Z,52.62
2018-10-18T22:19:07.922Z,51.23
2018-10-18T22:21:38.732Z,52.60
2018-10-18T22:24:08.508Z,52.93
2018-10-18T22:26:37.158Z,54.40
2018-10-18T22:29:06.557Z,53.48
2018-10-18T22:31:35.424Z,53.40
2018-10-18T22:34:04.585Z,52.05
2018-10-18T22:36:33.438Z,53.40
2018-10-18T22:39:02.322Z,55.40
2018-10-18T22:41:31.068Z,53.85
2018-10-18T22:43:59.819Z,54.63
2018-10-18T22:46:29.487Z,53.73
2018-10-18T22:48:58.307Z,52.88
2018-10-18T22:51:27.181Z,54.27
2018-10-18T22:53:55.864Z,53.83
2018-10-18T22:56:24.741Z,51.70
2018-10-18T22:58:53.737Z,54.70
2018-10-18T23:01:22.368Z,56.55
2018-10-18T23:03:51.860Z,55.28
2018-10-18T23:06:20.764Z,54.45
2018-10-18T23:08:49.535Z,55.60
2018-10-18T23:11:18.403Z,56.53
2018-10-18T23:13:47.180Z,55.30
2018-10-18T23:16:15.859Z,58.05
2018-10-18T23:18:44.545Z,58.68
2018-10-18T23:21:13.328Z,56.28
2018-10-18T23:23:41.928Z,56.35
2018-10-18T23:26:10.643Z,56.42
2018-10-18T23:28:39.435Z,56.87
2018-10-18T23:31:08.132Z,56.63
2018-10-18T23:33:37.573Z,57.50
2018-10-18T23:36:06.404Z,57.60
2018-10-18T23:38:35.093Z,56.95
2018-10-18T23:41:04.143Z,55.97
2018-10-18T23:43:33.049Z,56.75
2018-10-18T23:46:01.764Z,57.93
2018-10-18T23:48:30.335Z,58.55
2018-10-18T23:50:59.163Z,59.95
2018-10-18T23:53:27.867Z,62.25
2018-10-18T23:55:56.602Z,61.28
2018-10-18T23:58:26.144Z,58.68
